Time;durP1;ratioP1;P1;durP2;ratioP2;P2;SDS_P1;SDS_P2;PMS_P1;PMS_P2;Temp;Humidity;BMP_temperature;BMP_pressure;BME280_temperature;BME280_humidity;BME280_pressure;Samples;Min_cycle;Max_cycle;Signal;HPM_P1;HPM_P2
2022/05/04 00:00:01;;;;;;;6.72;2.20;;;8.30;99.90;;;;;;5009803;28;20042;-79
2022/05/04 00:02:26;;;;;;;7.97;2.22;;;8.40;99.90;;;;;;4988487;28;20115;-79
2022/05/04 00:04:52;;;;;;;8.18;2.33;;;8.40;99.90;;;;;;5000685;28;20077;-79
2022/05/04 00:07:17;;;;;;;9.93;2.33;;;8.40;99.90;;;;;;5004361;28;20053;-79
2022/05/04 00:09:43;;;;;;;8.93;2.35;;;8.40;99.90;;;;;;5020919;28;20050;-79
2022/05/04 00:12:09;;;;;;;9.80;3.17;;;8.30;99.90;;;;;;5028574;28;20037;-79
2022/05/04 00:14:34;;;;;;;7.53;2.67;;;8.30;99.90;;;;;;5029633;28;20041;-79
2022/05/04 00:17:00;;;;;;;8.07;2.85;;;8.30;99.90;;;;;;5029011;28;20030;-79
2022/05/04 00:19:25;;;;;;;8.98;2.40;;;8.20;99.90;;;;;;5023590;28;20041;-79
2022/05/04 00:21:51;;;;;;;11.95;2.58;;;8.30;99.90;;;;;;5028142;28;20053;-79
2022/05/04 00:24:19;;;;;;;9.07;2.92;;;8.20;99.90;;;;;;5024522;28;20497;-80
2022/05/04 00:26:46;;;;;;;8.32;2.63;;;8.30;99.90;;;;;;5022210;28;20045;-80
2022/05/04 00:29:11;;;;;;;6.43;2.03;;;8.30;99.90;;;;;;5028973;28;20539;-80
2022/05/04 00:31:37;;;;;;;5.50;1.98;;;8.30;99.90;;;;;;5015890;28;20133;-80
2022/05/04 00:34:03;;;;;;;9.85;2.35;;;8.30;99.90;;;;;;5024206;28;20038;-80
2022/05/04 00:36:28;;;;;;;10.88;2.15;;;8.30;99.90;;;;;;5039032;28;20498;-79
2022/05/04 00:38:54;;;;;;;10.55;2.58;;;8.30;99.90;;;;;;5028478;28;20636;-79
2022/05/04 00:41:19;;;;;;;5.72;2.00;;;8.30;99.90;;;;;;5024871;28;20049;-80
2022/05/04 00:43:53;;;;;;;6.57;2.00;;;8.30;99.90;;;;;;5027360;28;20098;-79
2022/05/04 00:46:19;;;;;;;11.32;2.60;;;8.30;99.90;;;;;;5043641;28;20041;-80
2022/05/04 00:48:44;;;;;;;7.15;2.20;;;8.30;99.90;;;;;;5028473;28;20167;-79
2022/05/04 00:51:10;;;;;;;6.15;2.33;;;8.30;99.90;;;;;;5043140;28;20128;-79
2022/05/04 00:53:37;;;;;;;8.32;1.98;;;8.30;99.90;;;;;;5027310;28;20146;-79
2022/05/04 00:56:04;;;;;;;11.35;2.72;;;8.30;99.90;;;;;;5026685;28;20041;-79
2022/05/04 01:01:16;;;;;;;6.95;2.13;;;8.10;99.90;;;;;;5027138;28;20049;-79
2022/05/04 01:03:42;;;;;;;11.77;2.78;;;8.20;99.90;;;;;;5020774;28;20049;-79
2022/05/04 01:06:08;;;;;;;7.07;2.20;;;8.20;99.90;;;;;;5045254;28;20053;-79
2022/05/04 01:08:33;;;;;;;12.73;2.58;;;8.20;99.90;;;;;;5030073;28;20052;-80
2022/05/04 01:10:59;;;;;;;6.55;2.25;;;8.20;99.90;;;;;;5030378;28;20041;-79
2022/05/04 01:13:25;;;;;;;8.95;2.20;;;8.10;99.90;;;;;;5015750;28;20475;-79
2022/05/04 01:15:50;;;;;;;9.07;2.88;;;8.10;99.90;;;;;;5029739;28;20071;-79
2022/05/04 01:18:16;;;;;;;9.82;2.47;;;8.10;99.90;;;;;;5029973;28;20391;-79
2022/05/04 01:20:42;;;;;;;7.65;2.67;;;8.10;99.90;;;;;;5030840;28;20486;-79
2022/05/04 01:23:08;;;;;;;8.68;2.47;;;8.10;99.90;;;;;;5030375;28;20139;-79
2022/05/04 01:25:34;;;;;;;9.20;2.25;;;8.10;99.90;;;;;;5029795;28;20040;-79
2022/05/04 01:28:01;;;;;;;6.70;2.30;;;8.10;99.90;;;;;;5029772;28;20381;-79
2022/05/04 01:30:27;;;;;;;9.18;2.72;;;8.00;99.90;;;;;;5025757;28;20044;-79
2022/05/04 01:32:53;;;;;;;15.98;2.67;;;8.00;99.90;;;;;;5028239;28;20075;-80
2022/05/04 01:35:18;;;;;;;4.45;2.03;;;8.00;99.90;;;;;;5046351;28;20077;-79
2022/05/04 01:37:45;;;;;;;7.68;2.30;;;8.00;99.90;;;;;;5014087;28;20417;-80
2022/05/04 01:40:10;;;;;;;8.10;2.30;;;8.00;99.90;;;;;;5012617;28;20100;-79
2022/05/04 01:42:36;;;;;;;6.95;2.20;;;8.00;99.90;;;;;;5046068;28;20080;-79
2022/05/04 01:45:04;;;;;;;7.18;2.05;;;8.00;99.90;;;;;;5029217;28;20041;-79
2022/05/04 01:47:30;;;;;;;7.22;2.38;;;8.00;99.90;;;;;;5027955;28;20178;-79
2022/05/04 01:49:56;;;;;;;5.45;2.08;;;8.00;99.90;;;;;;5029484;28;20049;-80
2022/05/04 01:52:21;;;;;;;7.38;2.20;;;8.00;99.90;;;;;;5029764;28;20037;-80
2022/05/04 01:54:47;;;;;;;9.70;2.17;;;8.00;99.90;;;;;;5027276;28;20041;-80
2022/05/04 01:57:12;;;;;;;6.78;2.28;;;8.00;99.90;;;;;;5030950;28;20120;-80
2022/05/04 01:59:38;;;;;;;8.23;2.20;;;8.00;99.90;;;;;;5030538;28;20068;-80
2022/05/04 02:02:07;;;;;;;7.07;2.28;;;8.00;99.90;;;;;;5028087;28;20047;-80
2022/05/04 02:04:34;;;;;;;9.93;2.40;;;7.90;99.90;;;;;;5038146;28;20061;-80
2022/05/04 02:07:01;;;;;;;9.05;2.38;;;7.90;99.90;;;;;;5042555;28;20057;-80
2022/05/04 02:09:27;;;;;;;5.88;1.95;;;7.90;99.90;;;;;;5030073;28;20037;-80
2022/05/04 02:11:52;;;;;;;6.70;2.13;;;7.70;99.90;;;;;;5029568;28;20053;-80
2022/05/04 02:14:19;;;;;;;10.40;2.20;;;7.70;99.90;;;;;;5026929;28;20060;-80
2022/05/04 02:16:45;;;;;;;7.90;2.20;;;7.70;99.90;;;;;;5029830;28;20044;-80
2022/05/04 02:19:11;;;;;;;7.38;2.20;;;7.70;99.90;;;;;;5029406;28;20122;-80
2022/05/04 02:21:37;;;;;;;7.32;2.22;;;7.60;99.90;;;;;;5026007;28;20424;-80
2022/05/04 02:24:02;;;;;;;7.47;1.90;;;7.50;99.90;;;;;;5029821;28;20155;-80
2022/05/04 02:26:28;;;;;;;7.00;1.98;;;7.30;99.90;;;;;;5029736;28;20033;-80
2022/05/04 02:28:54;;;;;;;7.05;1.92;;;7.30;99.90;;;;;;5031062;28;20457;-80
2022/05/04 02:31:20;;;;;;;6.22;2.28;;;7.30;99.90;;;;;;5031959;28;20037;-80
2022/05/04 02:33:47;;;;;;;8.32;2.58;;;7.40;99.90;;;;;;5017669;28;20152;-80
2022/05/04 02:38:58;;;;;;;7.43;2.35;;;7.30;99.90;;;;;;5055276;28;20045;-81
2022/05/04 02:41:24;;;;;;;8.05;2.33;;;7.20;99.90;;;;;;5023598;28;20053;-80
2022/05/04 02:43:49;;;;;;;8.70;2.83;;;7.20;99.90;;;;;;5032170;28;20037;-80
2022/05/04 02:46:20;;;;;;;7.57;2.13;;;7.20;99.90;;;;;;5033135;28;20053;-80
2022/05/04 02:48:46;;;;;;;7.05;2.40;;;7.20;99.90;;;;;;5033770;28;20049;-80
2022/05/04 02:51:13;;;;;;;8.60;2.45;;;7.20;99.90;;;;;;5032804;28;20044;-80
2022/05/04 02:53:39;;;;;;;7.90;2.22;;;7.20;99.90;;;;;;5033201;28;20037;-80
2022/05/04 02:56:08;;;;;;;7.88;2.50;;;7.20;99.90;;;;;;5032333;28;20043;-80
2022/05/04 02:58:34;;;;;;;10.32;2.40;;;7.20;99.90;;;;;;5033478;28;20552;-80
2022/05/04 03:04:06;;;;;;;7.68;2.30;;;7.10;99.90;;;;;;5033089;28;20557;-80
2022/05/04 03:06:32;;;;;;;8.40;2.30;;;7.20;99.90;;;;;;5033636;28;20056;-80
2022/05/04 03:08:58;;;;;;;9.68;2.90;;;7.20;99.90;;;;;;5032804;28;20144;-80
2022/05/04 03:14:08;;;;;;;7.95;2.38;;;7.00;99.90;;;;;;5030339;28;20474;-80
2022/05/04 03:16:34;;;;;;;7.78;2.63;;;6.90;99.90;;;;;;5032465;28;20045;-80
2022/05/04 03:19:00;;;;;;;8.40;2.40;;;6.90;99.90;;;;;;5032427;28;20076;-80
2022/05/04 03:21:26;;;;;;;7.70;2.35;;;6.90;99.90;;;;;;5031971;28;20183;-80
2022/05/04 03:23:51;;;;;;;5.70;2.58;;;6.90;99.90;;;;;;5033120;28;20061;-80
2022/05/04 03:26:18;;;;;;;8.20;2.50;;;6.90;99.90;;;;;;5032668;28;20040;-80
2022/05/04 03:28:44;;;;;;;9.48;2.80;;;7.00;99.90;;;;;;5015852;28;20048;-80
2022/05/04 03:31:10;;;;;;;6.68;2.40;;;7.00;99.90;;;;;;5030749;28;20188;-80
2022/05/04 03:33:36;;;;;;;10.13;2.33;;;7.00;99.90;;;;;;5032977;28;20577;-80
2022/05/04 03:36:01;;;;;;;7.32;2.88;;;7.00;99.90;;;;;;5015438;28;20040;-80
2022/05/04 03:38:27;;;;;;;9.18;2.50;;;7.10;99.90;;;;;;5032984;28;20536;-80
2022/05/04 03:40:52;;;;;;;7.13;2.53;;;7.10;99.90;;;;;;5032555;28;20041;-80
2022/05/04 03:43:18;;;;;;;7.30;2.40;;;7.10;99.90;;;;;;5031833;28;20048;-80
2022/05/04 03:45:43;;;;;;;8.48;2.90;;;7.10;99.90;;;;;;5015069;28;20044;-80
2022/05/04 03:48:09;;;;;;;5.90;2.50;;;7.20;99.90;;;;;;5030222;28;20070;-80
2022/05/04 03:50:34;;;;;;;8.93;3.22;;;7.20;99.90;;;;;;5032620;28;20049;-80
2022/05/04 03:53:00;;;;;;;8.18;2.65;;;7.30;99.90;;;;;;5031559;28;20505;-80
2022/05/04 03:55:25;;;;;;;8.80;2.53;;;7.30;99.90;;;;;;5031512;28;20288;-80
2022/05/04 03:57:51;;;;;;;9.23;2.53;;;7.30;99.90;;;;;;5028868;28;20029;-80
2022/05/04 04:00:17;;;;;;;9.88;2.97;;;7.30;99.90;;;;;;5008111;28;20048;-80
2022/05/04 04:02:42;;;;;;;6.65;2.17;;;7.30;99.90;;;;;;5030233;28;20048;-80
2022/05/04 04:05:09;;;;;;;8.02;2.83;;;7.30;99.90;;;;;;5059056;28;20049;-80
2022/05/04 04:07:35;;;;;;;7.18;2.60;;;7.40;99.90;;;;;;5031320;28;20057;-80
2022/05/04 04:10:00;;;;;;;10.25;2.70;;;7.40;99.90;;;;;;5032379;28;20384;-80
2022/05/04 04:12:26;;;;;;;6.10;2.10;;;7.40;99.90;;;;;;5030414;28;20118;-80
2022/05/04 04:14:51;;;;;;;7.72;2.88;;;7.50;99.90;;;;;;5032483;28;20092;-80
2022/05/04 04:17:17;;;;;;;5.32;2.60;;;7.50;99.90;;;;;;5025938;28;20038;-80
2022/05/04 04:21:50;;;;;;;9.63;2.47;;;7.50;99.90;;;;;;5030131;28;20087;-80
2022/05/04 04:22:31;;;;;;;7.63;2.85;;;7.50;99.90;;;;;;5017608;28;20501;-80
2022/05/04 04:24:56;;;;;;;7.78;2.50;;;7.50;99.90;;;;;;5032299;28;20041;-80
2022/05/04 04:27:22;;;;;;;9.07;2.53;;;7.50;99.90;;;;;;5032361;28;20033;-80
2022/05/04 04:29:48;;;;;;;7.45;2.30;;;7.50;99.90;;;;;;5030476;28;20037;-80
2022/05/04 04:32:14;;;;;;;8.57;2.65;;;7.60;99.90;;;;;;5029014;28;20052;-80
2022/05/04 04:34:40;;;;;;;7.72;2.50;;;7.50;99.90;;;;;;5032427;28;20053;-80
2022/05/04 04:37:05;;;;;;;9.90;2.70;;;7.50;99.90;;;;;;5029249;28;20522;-80
2022/05/04 04:39:31;;;;;;;6.55;2.40;;;7.60;99.90;;;;;;5031032;28;20041;-80
2022/05/04 04:41:56;;;;;;;8.55;2.55;;;7.60;99.90;;;;;;5030929;28;20037;-80
2022/05/04 04:44:22;;;;;;;11.02;3.03;;;7.60;99.90;;;;;;5030096;28;20055;-80
2022/05/04 04:46:47;;;;;;;5.82;2.72;;;7.60;99.90;;;;;;5031070;28;20041;-80
2022/05/04 04:49:13;;;;;;;7.40;2.85;;;7.60;99.90;;;;;;5047046;28;20037;-81
2022/05/04 04:51:38;;;;;;;7.68;2.90;;;7.70;99.90;;;;;;5027287;28;20144;-80
2022/05/04 04:54:04;;;;;;;6.72;2.38;;;7.70;99.90;;;;;;5014512;28;20164;-80
2022/05/04 04:56:29;;;;;;;9.05;2.58;;;7.80;99.90;;;;;;5014951;28;20029;-80
2022/05/04 04:58:55;;;;;;;10.18;3.17;;;7.80;99.90;;;;;;5028692;28;20508;-81
2022/05/04 05:01:20;;;;;;;10.02;2.45;;;7.90;99.90;;;;;;5028518;28;20037;-80
2022/05/04 05:03:46;;;;;;;7.80;2.60;;;7.90;99.90;;;;;;5030268;28;20043;-80
2022/05/04 05:06:12;;;;;;;5.65;2.75;;;8.00;99.90;;;;;;5029691;28;20041;-79
2022/05/04 05:08:41;;;;;;;6.90;2.60;;;8.00;99.90;;;;;;5028217;28;20045;-80
2022/05/04 05:11:06;;;;;;;7.35;2.50;;;8.10;99.90;;;;;;5015703;28;20041;-79
2022/05/04 05:13:32;;;;;;;5.70;2.67;;;8.20;99.90;;;;;;5018361;28;20033;-79
2022/05/04 05:16:09;;;;;;;8.93;2.65;;;8.20;99.90;;;;;;5014131;28;20527;-79
2022/05/04 05:18:36;;;;;;;9.40;2.38;;;8.30;99.90;;;;;;5018348;28;20371;-80
2022/05/04 05:21:02;;;;;;;9.05;2.78;;;8.20;99.90;;;;;;5009812;28;20045;-79
2022/05/04 05:23:28;;;;;;;11.48;2.70;;;8.20;99.90;;;;;;5027031;28;20445;-79
2022/05/04 05:25:53;;;;;;;7.82;2.50;;;8.20;99.90;;;;;;5023409;28;20067;-80
2022/05/04 05:28:19;;;;;;;5.93;2.10;;;8.20;99.90;;;;;;5031132;28;20094;-80
2022/05/04 05:30:45;;;;;;;10.93;2.33;;;8.20;99.90;;;;;;5028207;28;20047;-80
2022/05/04 05:33:10;;;;;;;6.68;2.28;;;8.30;99.90;;;;;;5029971;28;20047;-79
2022/05/04 05:35:37;;;;;;;7.93;2.30;;;8.30;99.90;;;;;;5031150;28;20043;-79
2022/05/04 05:38:02;;;;;;;6.93;2.22;;;8.40;99.90;;;;;;5027693;28;20041;-79
2022/05/04 05:40:28;;;;;;;4.90;1.67;;;8.40;99.90;;;;;;5027864;28;20052;-79
2022/05/04 05:42:53;;;;;;;11.90;2.70;;;8.50;99.90;;;;;;5026820;28;20059;-79
2022/05/04 05:45:19;;;;;;;6.07;2.22;;;8.60;99.90;;;;;;5032462;28;20044;-78
2022/05/04 05:47:45;;;;;;;7.28;2.50;;;8.60;99.90;;;;;;5030012;28;20097;-79
2022/05/04 05:50:11;;;;;;;5.07;1.90;;;8.70;99.90;;;;;;5029780;28;20045;-79
2022/05/04 05:52:36;;;;;;;9.57;3.08;;;8.80;99.90;;;;;;5042240;28;20367;-79
2022/05/04 05:55:03;;;;;;;7.45;2.05;;;8.80;99.90;;;;;;4999818;28;20083;-80
2022/05/04 05:57:28;;;;;;;6.78;2.33;;;8.90;99.90;;;;;;5036111;28;20045;-80
2022/05/04 05:59:54;;;;;;;7.78;2.03;;;8.90;99.90;;;;;;5027785;28;20049;-80
2022/05/04 06:02:19;;;;;;;6.68;2.00;;;8.80;99.90;;;;;;5028597;28;20048;-78
2022/05/04 06:04:46;;;;;;;9.88;2.85;;;8.90;99.90;;;;;;5019941;28;20156;-79
2022/05/04 06:07:11;;;;;;;7.15;2.83;;;9.00;99.90;;;;;;5020351;28;20322;-79
2022/05/04 06:09:37;;;;;;;8.80;2.25;;;9.10;99.90;;;;;;5043528;28;20038;-79
2022/05/04 06:12:03;;;;;;;7.13;1.98;;;9.10;99.90;;;;;;5018296;28;20037;-78
2022/05/04 06:14:28;;;;;;;5.63;2.38;;;9.10;99.90;;;;;;5034395;28;20048;-79
2022/05/04 06:16:54;;;;;;;6.68;2.50;;;9.20;99.90;;;;;;5033179;28;20041;-78
2022/05/04 06:19:19;;;;;;;8.23;2.42;;;9.30;99.90;;;;;;5051116;28;20041;-78
2022/05/04 06:21:45;;;;;;;11.10;3.08;;;9.20;99.90;;;;;;5034737;28;20745;-78
2022/05/04 06:24:10;;;;;;;8.63;1.98;;;9.20;99.90;;;;;;5050938;28;20459;-78
2022/05/04 06:26:36;;;;;;;6.40;1.75;;;9.30;99.90;;;;;;5030262;28;20409;-79
2022/05/04 06:29:02;;;;;;;7.80;2.22;;;9.40;99.90;;;;;;5014914;28;20075;-78
2022/05/04 06:34:12;;;;;;;8.90;2.25;;;9.60;99.90;;;;;;5050685;28;20045;-79
2022/05/04 06:36:40;;;;;;;7.70;2.42;;;9.70;99.90;;;;;;5052553;28;20588;-78
2022/05/04 06:39:07;;;;;;;7.47;2.55;;;9.80;99.90;;;;;;5033639;28;20097;-79
2022/05/04 06:41:36;;;;;;;5.68;2.70;;;9.80;99.90;;;;;;5033666;28;20159;-78
2022/05/04 06:44:03;;;;;;;6.38;2.13;;;9.90;99.90;;;;;;5034248;28;20505;-78
2022/05/04 06:46:29;;;;;;;6.68;2.08;;;10.00;99.90;;;;;;5034157;28;20041;-78
2022/05/04 06:48:55;;;;;;;6.65;1.80;;;10.00;99.70;;;;;;5034179;28;20047;-79
2022/05/04 06:51:20;;;;;;;7.90;2.17;;;10.00;99.20;;;;;;5031324;28;20040;-79
2022/05/04 06:53:46;;;;;;;5.28;1.90;;;10.10;99.90;;;;;;5035046;28;20037;-79
2022/05/04 06:56:12;;;;;;;7.68;2.50;;;10.20;99.90;;;;;;5037237;28;20468;-78
2022/05/04 06:58:37;;;;;;;6.45;2.50;;;10.20;96.70;;;;;;5055043;28;20043;-78
2022/05/04 07:01:05;;;;;;;5.88;1.83;;;10.20;99.10;;;;;;5035783;28;20128;-78
2022/05/04 07:03:31;;;;;;;6.82;2.33;;;10.30;99.90;;;;;;5033805;28;20049;-78
2022/05/04 07:05:57;;;;;;;8.77;2.60;;;10.30;99.90;;;;;;5033032;28;20055;-78
2022/05/04 07:08:23;;;;;;;6.60;2.10;;;10.50;99.90;;;;;;5032202;28;20057;-78
2022/05/04 07:10:50;;;;;;;9.82;2.70;;;10.50;99.50;;;;;;5033613;28;20079;-78
2022/05/04 07:13:15;;;;;;;6.22;2.25;;;10.60;99.90;;;;;;5033751;28;20128;-79
2022/05/04 07:15:41;;;;;;;7.72;2.17;;;10.60;99.90;;;;;;5032920;28;20132;-79
2022/05/04 07:18:06;;;;;;;12.88;2.42;;;10.40;95.90;;;;;;5033239;28;20222;-79
2022/05/04 07:20:32;;;;;;;3.88;1.77;;;10.50;98.80;;;;;;5017269;28;20086;-79
2022/05/04 07:22:58;;;;;;;7.95;2.05;;;10.60;96.90;;;;;;5034264;23;20056;-72
2022/05/04 07:25:23;;;;;;;8.73;2.88;;;10.50;96.00;;;;;;5052915;28;20048;-72
2022/05/04 07:27:49;;;;;;;8.10;2.13;;;10.70;95.30;;;;;;5052800;28;20500;-72
2022/05/04 07:30:14;;;;;;;6.32;2.40;;;10.60;95.60;;;;;;5051585;28;20731;-74
2022/05/04 07:32:40;;;;;;;6.60;2.25;;;10.60;94.70;;;;;;5026375;28;20047;-74
2022/05/04 07:35:08;;;;;;;9.93;2.00;;;10.30;94.70;;;;;;5033731;28;20041;-74
2022/05/04 07:37:34;;;;;;;8.02;2.38;;;10.50;94.80;;;;;;5034552;28;20090;-74
2022/05/04 07:42:44;;;;;;;5.78;1.92;;;10.90;97.20;;;;;;5053861;28;20037;-75
2022/05/04 07:45:12;;;;;;;9.68;2.13;;;11.20;97.70;;;;;;5037565;28;20390;-74
2022/05/04 07:47:39;;;;;;;4.72;1.95;;;10.90;93.30;;;;;;5045077;28;20029;-74
2022/05/04 07:50:06;;;;;;;6.88;2.05;;;11.30;97.70;;;;;;5032676;28;20127;-74
2022/05/04 07:52:32;;;;;;;6.80;2.13;;;12.00;97.80;;;;;;5050972;28;20425;-74
2022/05/04 07:54:58;;;;;;;6.15;2.00;;;13.20;95.60;;;;;;5034157;28;20163;-74
2022/05/04 07:57:24;;;;;;;5.35;2.13;;;13.80;94.00;;;;;;5053308;28;20791;-74
2022/05/04 08:05:22;;;;;;;8.90;2.20;;;14.80;90.30;;;;;;5065368;28;20048;-74
2022/05/04 08:07:47;;;;;;;5.90;2.00;;;15.00;88.00;;;;;;5050653;28;20048;-73
2022/05/04 08:10:13;;;;;;;6.15;1.77;;;15.20;87.10;;;;;;5034035;28;20045;-74
2022/05/04 08:12:39;;;;;;;9.10;2.05;;;14.30;72.80;;;;;;5033663;28;20044;-74
2022/05/04 08:15:06;;;;;;;3.97;1.77;;;14.80;83.10;;;;;;5031812;28;20136;-74
2022/05/04 08:17:31;;;;;;;6.35;2.47;;;14.90;83.40;;;;;;5033242;28;20158;-74
2022/05/04 08:19:58;;;;;;;5.85;1.55;;;14.20;74.30;;;;;;5034087;28;20432;-74
2022/05/04 08:22:23;;;;;;;6.43;2.17;;;13.70;78.40;;;;;;5031821;28;20057;-74
2022/05/04 08:24:49;;;;;;;5.43;2.00;;;14.10;76.10;;;;;;5015498;28;20033;-74
2022/05/04 08:27:14;;;;;;;7.82;2.28;;;13.90;81.20;;;;;;5020536;28;20556;-74
2022/05/04 08:29:40;;;;;;;4.03;1.40;;;13.90;84.90;;;;;;5007964;28;20804;-73
2022/05/04 08:32:06;;;;;;;5.32;1.77;;;13.90;78.50;;;;;;5045444;28;20124;-73
2022/05/04 08:34:32;;;;;;;6.47;2.15;;;12.70;78.80;;;;;;5032668;28;20057;-73
2022/05/04 08:36:57;;;;;;;5.53;2.25;;;12.50;81.10;;;;;;5032434;28;20048;-73
2022/05/04 08:39:23;;;;;;;6.03;2.15;;;12.90;86.20;;;;;;5032178;28;20041;-74
2022/05/04 08:41:48;;;;;;;6.80;2.38;;;12.50;79.20;;;;;;5030593;28;20052;-73
2022/05/04 08:44:14;;;;;;;5.65;1.95;;;12.50;80.30;;;;;;5032687;28;20136;-73
2022/05/04 08:46:42;;;;;;;5.57;2.00;;;12.90;81.90;;;;;;5032908;28;20542;-73
2022/05/04 08:49:09;;;;;;;6.75;1.83;;;12.70;78.70;;;;;;5049669;28;20033;-74
2022/05/04 08:51:36;;;;;;;7.18;1.85;;;13.30;85.70;;;;;;5050944;28;20091;-73
2022/05/04 08:54:04;;;;;;;4.85;2.13;;;13.70;78.40;;;;;;5033264;28;20044;-73
2022/05/04 08:56:31;;;;;;;5.72;2.08;;;13.80;80.70;;;;;;5033024;28;20045;-73
2022/05/04 08:58:56;;;;;;;6.32;2.30;;;14.30;83.20;;;;;;5028812;28;20041;-73
2022/05/04 09:01:25;;;;;;;7.82;2.15;;;14.40;82.40;;;;;;5031899;28;20041;-74
2022/05/04 09:03:50;;;;;;;7.47;1.92;;;13.60;77.50;;;;;;5016028;28;20068;-74
2022/05/04 09:06:31;;;;;;;6.68;2.15;;;13.40;78.10;;;;;;5048424;28;20107;-73
2022/05/04 09:09:08;;;;;;;4.53;1.80;;;13.80;83.90;;;;;;5040832;28;20037;-73
2022/05/04 09:11:36;;;;;;;6.38;2.33;;;13.70;79.40;;;;;;5032613;28;20059;-73
2022/05/04 09:14:14;;;;;;;6.18;2.05;;;12.90;78.20;;;;;;5032657;28;20048;-74
2022/05/04 09:16:41;;;;;;;11.32;2.30;;;12.70;82.20;;;;;;5032650;28;20033;-73
2022/05/04 09:19:07;;;;;;;9.63;2.55;;;12.90;82.40;;;;;;5032812;28;20356;-74
2022/05/04 09:21:34;;;;;;;9.23;2.50;;;13.20;84.40;;;;;;5032831;28;20061;-73
2022/05/04 09:23:59;;;;;;;8.00;2.53;;;13.60;81.80;;;;;;5030778;28;20048;-74
2022/05/04 09:26:26;;;;;;;6.45;1.70;;;13.90;84.80;;;;;;5031276;28;20060;-73
2022/05/04 09:28:58;;;;;;;7.72;2.00;;;14.30;86.30;;;;;;5032601;28;20131;-74
2022/05/04 09:31:25;;;;;;;9.63;2.50;;;14.80;83.80;;;;;;5032271;28;20044;-74
2022/05/04 09:33:56;;;;;;;6.55;2.03;;;14.70;72.90;;;;;;5031645;28;20041;-73
2022/05/04 09:44:53;;;;;;;6.15;2.08;;;13.90;73.70;;;;;;5032697;28;20094;-73
2022/05/04 09:45:11;;;;;;;8.43;2.30;;;14.90;79.80;;;;;;5023461;28;20080;-74
2022/05/04 09:47:45;;;;;;;4.20;1.50;;;15.10;72.50;;;;;;5045554;28;20029;-74
2022/05/04 09:50:12;;;;;;;5.00;1.92;;;15.10;75.30;;;;;;5046423;28;20078;-73
2022/05/04 09:52:46;;;;;;;8.57;2.45;;;14.80;73.80;;;;;;5029312;28;20573;-73
2022/05/04 09:55:21;;;;;;;6.78;2.05;;;14.30;72.00;;;;;;5026204;28;20048;-73
2022/05/04 09:57:47;;;;;;;9.07;2.30;;;14.20;72.30;;;;;;5042621;28;20124;-73
2022/05/04 10:00:15;;;;;;;8.73;2.33;;;13.90;71.30;;;;;;5027773;28;20045;-73
2022/05/04 10:02:42;;;;;;;5.53;2.13;;;13.70;72.00;;;;;;5013400;28;20045;-73
2022/05/04 10:05:09;;;;;;;7.50;2.20;;;13.60;73.00;;;;;;5031365;28;20882;-73
2022/05/04 10:07:36;;;;;;;8.00;2.20;;;13.90;81.00;;;;;;5027192;28;20051;-73
2022/05/04 10:10:04;;;;;;;5.68;2.10;;;12.70;74.80;;;;;;5046281;28;20099;-73
2022/05/04 10:12:30;;;;;;;7.68;2.47;;;13.30;80.90;;;;;;5030065;28;20053;-73
2022/05/04 10:14:58;;;;;;;6.13;2.22;;;13.50;78.50;;;;;;5024060;28;20542;-73
2022/05/04 10:17:26;;;;;;;8.35;2.30;;;13.40;74.00;;;;;;5028273;28;20037;-73
2022/05/04 10:20:05;;;;;;;4.75;1.73;;;12.90;76.40;;;;;;5046549;28;20045;-74
2022/05/04 10:22:47;;;;;;;5.93;2.15;;;13.10;78.50;;;;;;5045309;28;20049;-73
2022/05/04 10:25:13;;;;;;;4.47;1.90;;;13.50;79.70;;;;;;5035577;28;20644;-72
2022/05/04 10:27:40;;;;;;;7.47;2.90;;;13.80;83.10;;;;;;5029969;28;20644;-72
2022/05/04 10:32:55;;;;;;;7.70;2.17;;;13.50;76.40;;;;;;5047820;28;20049;-72
2022/05/04 10:35:42;;;;;;;6.18;2.30;;;13.90;81.60;;;;;;5030491;28;20036;-72
2022/05/04 10:38:14;;;;;;;11.48;2.38;;;13.50;77.20;;;;;;5029882;28;20051;-72
2022/05/04 10:40:47;;;;;;;8.85;2.00;;;13.60;76.30;;;;;;5045919;28;20091;-72
2022/05/04 10:43:17;;;;;;;6.60;2.45;;;13.30;76.80;;;;;;5031012;28;20057;-72
2022/05/04 10:45:45;;;;;;;5.47;2.22;;;13.60;80.60;;;;;;5037681;28;20560;-72
2022/05/04 10:48:20;;;;;;;6.82;1.95;;;13.70;80.30;;;;;;5043805;28;20668;-72
2022/05/04 10:50:49;;;;;;;6.18;1.70;;;13.90;77.00;;;;;;5032587;28;20128;-72
2022/05/04 10:53:22;;;;;;;5.75;1.92;;;14.40;80.60;;;;;;5026842;28;20083;-72
2022/05/04 10:56:00;;;;;;;6.88;2.45;;;14.60;78.80;;;;;;5047164;28;20048;-72
2022/05/04 10:58:43;;;;;;;9.52;2.20;;;14.30;74.10;;;;;;5029242;28;20076;-72
2022/05/04 11:01:15;;;;;;;7.03;2.55;;;14.20;73.40;;;;;;5048671;28;20048;-72
2022/05/04 11:04:25;;;;;;;5.50;2.42;;;14.60;79.30;;;;;;5026690;28;20073;-72
2022/05/04 11:06:53;;;;;;;6.78;2.55;;;14.30;72.90;;;;;;4981392;28;20057;-72
2022/05/04 11:09:21;;;;;;;8.13;2.25;;;14.60;79.00;;;;;;5026174;28;20049;-72
2022/05/04 11:11:49;;;;;;;7.85;2.58;;;14.90;78.70;;;;;;5034383;28;20132;-72
2022/05/04 11:14:16;;;;;;;7.93;2.83;;;15.20;71.70;;;;;;5032296;28;20049;-72
2022/05/04 11:16:44;;;;;;;8.23;2.35;;;15.00;69.30;;;;;;5034214;28;20040;-72
2022/05/04 11:19:12;;;;;;;7.40;3.20;;;14.20;70.20;;;;;;5047983;28;20102;-72
2022/05/04 11:21:38;;;;;;;6.80;2.40;;;13.40;72.10;;;;;;5036486;28;20386;-72
2022/05/04 11:24:06;;;;;;;4.72;1.98;;;13.90;75.40;;;;;;5037542;28;20465;-72
2022/05/04 11:26:38;;;;;;;7.60;2.78;;;14.50;78.10;;;;;;5017785;28;20036;-72
2022/05/04 11:29:23;;;;;;;;;;;13.90;74.60;;;;;;5037811;28;20383;-72
2022/05/04 11:31:59;;;;;;;8.18;2.60;;;14.30;77.70;;;;;;5050581;28;19928;-72
2022/05/04 11:34:36;;;;;;;7.00;2.33;;;14.00;75.50;;;;;;5031782;28;20055;-72
2022/05/04 11:37:12;;;;;;;4.18;2.15;;;13.80;78.90;;;;;;5048368;28;20044;-72
2022/05/04 11:39:39;;;;;;;4.32;2.40;;;14.20;80.90;;;;;;5049089;28;20472;-72
2022/05/04 11:42:09;;;;;;;5.43;2.63;;;14.30;75.00;;;;;;5034013;28;20124;-72
2022/05/04 11:44:38;;;;;;;7.93;2.47;;;14.60;77.90;;;;;;5044943;28;20072;-72
2022/05/04 11:47:04;;;;;;;8.73;2.60;;;14.90;79.40;;;;;;5034081;28;20075;-72
2022/05/04 11:49:32;;;;;;;6.38;2.50;;;14.70;71.10;;;;;;5017350;28;20045;-72
2022/05/04 11:51:58;;;;;;;7.15;2.50;;;14.70;76.80;;;;;;5033262;28;20082;-72
2022/05/04 11:54:24;;;;;;;8.48;2.75;;;14.70;75.50;;;;;;5032226;28;20029;-72
2022/05/04 11:56:50;;;;;;;9.68;2.58;;;13.90;74.50;;;;;;5031506;28;20063;-72
2022/05/04 11:59:15;;;;;;;6.20;2.70;;;14.40;78.40;;;;;;5031495;28;20056;-72
2022/05/04 12:01:41;;;;;;;4.93;2.33;;;14.20;74.60;;;;;;5032684;28;20494;-72
2022/05/04 12:04:10;;;;;;;7.45;2.20;;;14.30;74.40;;;;;;5032723;28;20049;-72
2022/05/04 12:06:37;;;;;;;6.63;2.83;;;14.60;78.10;;;;;;5031992;28;20057;-72
2022/05/04 12:09:03;;;;;;;7.03;2.85;;;14.60;79.50;;;;;;5051028;28;20616;-72
2022/05/04 12:11:30;;;;;;;6.75;2.70;;;14.70;76.80;;;;;;5032656;28;20041;-72
2022/05/04 12:13:59;;;;;;;6.30;2.60;;;14.50;73.80;;;;;;5032691;28;20048;-72
2022/05/04 12:16:25;;;;;;;6.63;2.22;;;14.70;77.30;;;;;;5032682;28;20048;-72
2022/05/04 12:18:51;;;;;;;6.22;2.17;;;14.90;77.70;;;;;;5032949;28;20045;-71
2022/05/04 12:21:22;;;;;;;7.03;2.90;;;15.10;78.20;;;;;;5031769;28;20049;-72
2022/05/04 12:23:50;;;;;;;5.72;2.38;;;15.40;79.90;;;;;;5047969;28;20597;-71
2022/05/04 12:26:17;;;;;;;5.18;2.20;;;15.20;74.20;;;;;;5032708;28;20295;-72
2022/05/04 12:33:08;;;;;;;4.82;2.20;;;15.40;76.40;;;;;;5049388;28;20041;-72
2022/05/04 12:34:15;;;;;;;6.10;2.38;;;15.60;73.40;;;;;;5032142;28;20628;-72
2022/05/04 12:36:44;;;;;;;7.97;2.88;;;15.40;73.60;;;;;;5016358;28;20033;-72
2022/05/04 12:39:10;;;;;;;5.90;2.40;;;14.90;72.50;;;;;;5034292;28;20033;-72
2022/05/04 12:41:36;;;;;;;9.75;2.63;;;14.80;73.90;;;;;;5042550;28;20049;-72
2022/05/04 12:44:04;;;;;;;6.45;2.78;;;15.20;77.20;;;;;;5048986;28;20037;-72
2022/05/04 12:46:30;;;;;;;6.90;2.33;;;15.50;76.80;;;;;;5032312;28;20040;-72
2022/05/04 12:48:56;;;;;;;7.53;2.33;;;15.70;77.80;;;;;;5032051;28;20041;-72
2022/05/04 12:51:24;;;;;;;6.88;2.45;;;15.70;73.00;;;;;;5048561;28;20044;-72
2022/05/04 12:53:50;;;;;;;6.47;2.10;;;15.60;74.70;;;;;;5030957;28;20065;-72
2022/05/04 12:59:01;;;;;;;9.32;2.97;;;15.70;73.10;;;;;;5048689;28;20048;-72
2022/05/04 13:01:28;;;;;;;9.02;2.90;;;15.80;70.90;;;;;;5015550;28;20059;-72
2022/05/04 13:03:54;;;;;;;4.65;2.10;;;15.20;71.70;;;;;;5032110;28;20041;-72
2022/05/04 13:06:20;;;;;;;6.40;2.17;;;15.10;71.10;;;;;;5031645;28;20124;-72
2022/05/04 13:08:48;;;;;;;7.63;2.10;;;15.40;73.70;;;;;;5015608;28;20053;-72
2022/05/04 13:11:14;;;;;;;8.10;2.45;;;15.60;73.80;;;;;;5015376;28;20136;-72
2022/05/04 13:13:40;;;;;;;5.72;2.72;;;15.80;75.60;;;;;;5045024;28;20033;-72
2022/05/04 13:16:05;;;;;;;5.35;1.90;;;15.50;71.60;;;;;;5029410;28;20368;-72
2022/05/04 13:18:31;;;;;;;7.20;2.05;;;15.80;75.10;;;;;;5033026;28;20078;-72
2022/05/04 13:20:56;;;;;;;7.32;2.17;;;16.10;76.10;;;;;;5031564;28;20478;-72
2022/05/04 13:23:22;;;;;;;5.10;2.28;;;16.20;74.00;;;;;;5031446;28;20061;-72
2022/05/04 13:25:47;;;;;;;6.70;2.83;;;16.10;68.20;;;;;;5013116;28;20052;-72